createdAt,value
2022-11-29T00:01:49.081Z,5.88
2022-11-29T00:04:18.390Z,7.07
2022-11-29T00:06:47.555Z,6.13
2022-11-29T00:09:19.178Z,6.85
2022-11-29T00:12:05.904Z,7.10
2022-11-29T00:14:38.483Z,6.25
2022-11-29T00:17:10.102Z,6.15
2022-11-29T00:19:40.445Z,6.60
2022-11-29T00:22:10.085Z,6.63
2022-11-29T00:24:45.671Z,7.72
2022-11-29T00:27:18.280Z,8.25
2022-11-29T00:29:47.626Z,7.00
2022-11-29T00:32:17.987Z,8.38
2022-11-29T00:34:47.809Z,10.38
2022-11-29T00:37:16.983Z,10.27
2022-11-29T00:39:50.264Z,11.07
2022-11-29T00:42:20.595Z,13.00
2022-11-29T00:44:49.799Z,12.27
2022-11-29T00:47:19.590Z,13.00
2022-11-29T00:49:49.387Z,14.32
2022-11-29T00:52:18.848Z,12.75
2022-11-29T00:54:51.610Z,14.13
2022-11-29T00:57:22.337Z,15.27
2022-11-29T00:59:52.210Z,14.80
2022-11-29T01:02:22.018Z,15.13
2022-11-29T01:04:55.080Z,16.65
2022-11-29T01:07:27.533Z,16.27
2022-11-29T01:09:58.263Z,14.82
2022-11-29T01:12:27.576Z,15.50
2022-11-29T01:14:56.795Z,12.50
2022-11-29T01:17:26.513Z,15.07
2022-11-29T01:20:01.841Z,13.95
2022-11-29T01:22:31.335Z,13.20
2022-11-29T01:25:01.714Z,15.07
2022-11-29T01:27:31.627Z,12.85
2022-11-29T01:30:01.190Z,13.30
2022-11-29T01:32:30.972Z,13.25
2022-11-29T01:35:00.410Z,14.23
2022-11-29T01:37:30.268Z,12.57
2022-11-29T01:39:59.578Z,16.27
2022-11-29T01:42:30.336Z,14.50
2022-11-29T01:45:07.929Z,13.82
2022-11-29T01:47:40.177Z,10.73
2022-11-29T01:50:11.353Z,14.32
2022-11-29T01:52:41.266Z,13.20
2022-11-29T01:55:14.833Z,12.93
2022-11-29T01:57:45.898Z,14.40
2022-11-29T02:00:17.618Z,14.00
2022-11-29T02:02:49.068Z,12.90
2022-11-29T02:05:19.282Z,13.65
2022-11-29T02:07:50.420Z,14.52
2022-11-29T02:10:19.993Z,15.07
2022-11-29T02:12:56.248Z,12.32
2022-11-29T02:15:30.903Z,14.15
2022-11-29T02:18:03.616Z,14.15
2022-11-29T02:20:50.634Z,14.23
2022-11-29T02:23:37.061Z,14.57
2022-11-29T02:26:15.333Z,14.20
2022-11-29T02:29:02.724Z,12.65
2022-11-29T02:31:57.366Z,14.45
2022-11-29T02:34:37.865Z,15.60
2022-11-29T02:37:15.245Z,16.15
2022-11-29T02:39:59.595Z,14.70
2022-11-29T02:42:54.397Z,15.10
2022-11-29T02:45:36.492Z,14.50
2022-11-29T02:48:13.191Z,15.10
2022-11-29T02:50:45.874Z,15.43
2022-11-29T02:53:17.465Z,17.08
2022-11-29T02:55:50.353Z,15.73
2022-11-29T02:58:25.503Z,18.08
2022-11-29T03:00:59.806Z,16.33
2022-11-29T03:03:33.649Z,16.02
2022-11-29T03:06:09.755Z,17.25
2022-11-29T03:08:42.556Z,17.15
2022-11-29T03:11:16.538Z,17.52
2022-11-29T03:13:51.623Z,15.93
2022-11-29T03:16:25.349Z,19.50
2022-11-29T03:19:01.884Z,17.73
2022-11-29T03:21:37.979Z,17.85
2022-11-29T03:24:09.261Z,17.63
2022-11-29T03:26:43.481Z,19.38
2022-11-29T03:29:15.405Z,15.73
2022-11-29T03:34:16.092Z,17.92
2022-11-29T03:39:17.343Z,16.88
2022-11-29T03:41:50.261Z,13.77
2022-11-29T03:44:20.775Z,17.15
2022-11-29T03:46:52.377Z,14.75
2022-11-29T03:49:24.555Z,13.45
2022-11-29T03:52:00.484Z,15.57
2022-11-29T03:54:34.478Z,13.07
2022-11-29T03:57:03.805Z,14.77
2022-11-29T03:59:39.634Z,16.85
2022-11-29T04:02:25.353Z,14.75
2022-11-29T04:05:27.783Z,14.88
2022-11-29T04:10:33.980Z,13.23
2022-11-29T04:13:16.947Z,11.45
2022-11-29T04:16:03.870Z,12.32
2022-11-29T04:18:48.607Z,12.35
2022-11-29T04:21:41.385Z,12.60
2022-11-29T04:24:17.772Z,12.82
2022-11-29T04:27:06.688Z,11.88
2022-11-29T04:29:43.797Z,11.38
2022-11-29T04:32:23.358Z,12.88
2022-11-29T04:35:09.116Z,12.38
2022-11-29T04:37:54.805Z,12.90
2022-11-29T04:40:38.776Z,12.70
2022-11-29T04:43:23.176Z,15.13
2022-11-29T04:46:06.669Z,13.45
2022-11-29T04:48:44.748Z,14.80
2022-11-29T04:51:21.363Z,14.02
2022-11-29T04:53:53.708Z,14.00
2022-11-29T04:56:27.655Z,14.75
2022-11-29T04:59:01.183Z,15.07
2022-11-29T05:01:33.905Z,14.07
2022-11-29T05:04:04.828Z,15.52
2022-11-29T05:06:36.813Z,13.82
2022-11-29T05:11:45.335Z,13.43
2022-11-29T05:14:20.461Z,14.43
2022-11-29T05:16:50.877Z,13.32
2022-11-29T05:19:30.809Z,14.07
2022-11-29T05:22:07.881Z,14.43
2022-11-29T05:24:48.288Z,13.50
2022-11-29T05:27:19.021Z,13.88
2022-11-29T05:29:51.749Z,12.65
2022-11-29T05:32:38.604Z,14.63
2022-11-29T05:35:15.842Z,12.98
2022-11-29T05:37:46.286Z,12.48
2022-11-29T05:40:33.336Z,15.77
2022-11-29T05:43:08.611Z,14.75
2022-11-29T05:45:42.756Z,15.15
2022-11-29T05:48:15.676Z,12.57
2022-11-29T05:50:47.634Z,12.52
2022-11-29T05:55:50.572Z,10.30
2022-11-29T05:58:29.932Z,11.75
2022-11-29T06:01:03.534Z,9.68
2022-11-29T06:03:35.483Z,12.73
2022-11-29T06:06:08.118Z,12.00
2022-11-29T06:08:39.263Z,10.93
2022-11-29T06:11:12.981Z,9.52
2022-11-29T06:13:51.026Z,10.75
2022-11-29T06:16:36.833Z,12.07
2022-11-29T06:19:20.851Z,11.13
2022-11-29T06:21:57.907Z,10.70
2022-11-29T06:24:37.249Z,10.00
2022-11-29T06:27:18.138Z,9.30
2022-11-29T06:29:51.745Z,10.05
2022-11-29T06:32:26.056Z,8.77
2022-11-29T06:34:59.223Z,9.15
2022-11-29T06:37:31.786Z,8.02
2022-11-29T06:40:00.975Z,7.25
2022-11-29T06:42:29.920Z,7.75
2022-11-29T06:44:59.282Z,8.75
2022-11-29T06:47:31.153Z,8.60
2022-11-29T06:52:31.575Z,8.20
2022-11-29T06:55:14.238Z,7.57
2022-11-29T06:57:54.188Z,8.48
2022-11-29T07:00:25.690Z,9.45
2022-11-29T07:03:01.927Z,7.35
2022-11-29T07:05:32.394Z,10.43
2022-11-29T07:08:04.029Z,8.13
2022-11-29T07:10:34.266Z,9.85
2022-11-29T07:13:03.652Z,8.02
2022-11-29T07:15:33.121Z,9.20
2022-11-29T07:18:11.067Z,8.63
2022-11-29T07:20:43.889Z,7.90
2022-11-29T07:23:15.340Z,9.20
2022-11-29T07:25:49.329Z,8.65
2022-11-29T07:28:25.072Z,7.32
2022-11-29T07:30:59.064Z,7.10
2022-11-29T07:33:32.964Z,7.22
2022-11-29T07:36:06.978Z,7.82
2022-11-29T07:38:40.243Z,7.45
2022-11-29T07:41:12.136Z,8.60
2022-11-29T07:43:45.723Z,7.18
2022-11-29T07:46:14.737Z,7.15
2022-11-29T07:48:45.270Z,8.82
2022-11-29T07:51:14.607Z,8.70
2022-11-29T07:53:47.320Z,8.50
2022-11-29T07:56:16.660Z,7.97
2022-11-29T07:58:45.756Z,8.13
2022-11-29T08:01:15.265Z,8.50
2022-11-29T08:03:45.751Z,8.20
2022-11-29T08:06:14.685Z,8.25
2022-11-29T08:08:44.459Z,7.95
2022-11-29T08:11:14.114Z,10.50
2022-11-29T08:13:43.349Z,9.05
2022-11-29T08:16:17.493Z,9.57
2022-11-29T08:18:48.411Z,10.45
2022-11-29T08:21:18.236Z,10.10
2022-11-29T08:23:47.393Z,9.90
2022-11-29T08:26:16.854Z,10.73
2022-11-29T08:28:46.060Z,10.13
2022-11-29T08:31:15.302Z,9.35
2022-11-29T08:33:44.834Z,8.52
2022-11-29T08:36:16.241Z,9.45
2022-11-29T08:38:45.501Z,8.73
2022-11-29T08:41:15.497Z,9.32
2022-11-29T08:43:44.767Z,9.45
2022-11-29T08:46:18.232Z,10.52
2022-11-29T08:48:47.832Z,9.30
2022-11-29T08:51:18.278Z,7.25
2022-11-29T08:53:51.612Z,6.88
2022-11-29T08:59:09.952Z,6.10
2022-11-29T09:01:38.995Z,6.40
2022-11-29T09:04:10.508Z,5.70
2022-11-29T09:06:41.664Z,5.40
2022-11-29T09:09:10.690Z,5.88
2022-11-29T09:11:39.820Z,5.50
2022-11-29T09:14:09.572Z,5.95
2022-11-29T09:16:39.463Z,6.25
2022-11-29T09:19:09.104Z,6.05
2022-11-29T09:21:38.081Z,5.70
2022-11-29T09:24:11.946Z,6.88
2022-11-29T09:26:42.185Z,6.55
2022-11-29T09:29:12.235Z,7.45
2022-11-29T09:31:41.180Z,7.10
2022-11-29T09:34:10.136Z,6.57
2022-11-29T09:36:39.160Z,7.43
2022-11-29T09:39:09.913Z,6.45
2022-11-29T09:41:48.849Z,6.70
2022-11-29T09:44:21.619Z,7.60
2022-11-29T09:46:58.604Z,7.13
2022-11-29T09:49:43.075Z,6.60
2022-11-29T09:52:16.911Z,6.43
2022-11-29T09:54:51.552Z,7.38
2022-11-29T09:57:22.059Z,6.82
2022-11-29T09:59:52.617Z,6.70
2022-11-29T10:02:24.760Z,6.35
2022-11-29T10:04:56.620Z,6.95
2022-11-29T10:07:29.762Z,7.47
2022-11-29T10:10:06.226Z,6.85
2022-11-29T10:12:39.330Z,9.10
2022-11-29T10:15:13.831Z,6.38
2022-11-29T10:17:46.647Z,6.95
2022-11-29T10:20:18.917Z,6.32
2022-11-29T10:22:53.602Z,5.25
2022-11-29T10:25:29.146Z,5.00
2022-11-29T10:28:02.001Z,5.53
2022-11-29T10:30:34.029Z,4.55
2022-11-29T10:33:04.182Z,4.82
2022-11-29T10:35:35.588Z,4.38
2022-11-29T10:38:29.605Z,4.75
2022-11-29T10:41:02.241Z,5.32
2022-11-29T10:43:31.413Z,5.25
2022-11-29T10:46:04.875Z,6.28
2022-11-29T10:48:37.720Z,5.50
2022-11-29T10:51:16.770Z,5.53
2022-11-29T10:53:46.649Z,6.05
2022-11-29T10:56:22.351Z,5.28
2022-11-29T10:58:58.699Z,5.40
2022-11-29T11:01:29.076Z,7.20
2022-11-29T11:03:59.591Z,7.85
2022-11-29T11:06:29.469Z,8.15
2022-11-29T11:08:59.685Z,9.27
2022-11-29T11:11:32.403Z,8.35
2022-11-29T11:14:03.775Z,7.32
2022-11-29T11:16:37.007Z,7.82
2022-11-29T11:19:21.931Z,6.80
2022-11-29T11:21:50.881Z,6.50
2022-11-29T11:24:24.899Z,7.13
2022-11-29T11:26:56.509Z,6.82
2022-11-29T11:29:28.524Z,6.10
2022-11-29T11:31:58.504Z,8.32
2022-11-29T11:34:34.209Z,7.55
2022-11-29T11:37:20.516Z,8.25
2022-11-29T11:39:50.838Z,7.70
2022-11-29T11:42:37.942Z,8.18
2022-11-29T11:45:22.461Z,8.32
2022-11-29T11:47:52.630Z,8.73
2022-11-29T11:50:28.735Z,7.25
2022-11-29T11:52:58.830Z,7.93
2022-11-29T11:55:30.905Z,7.13
2022-11-29T11:58:09.398Z,8.45
2022-11-29T12:03:37.887Z,6.80
2022-11-29T12:06:16.696Z,6.13
2022-11-29T12:08:50.058Z,6.90
2022-11-29T12:11:37.536Z,6.78
2022-11-29T12:14:09.203Z,7.30
2022-11-29T12:16:40.371Z,7.35
2022-11-29T12:19:16.806Z,6.60
2022-11-29T12:21:49.434Z,7.13
2022-11-29T12:24:23.218Z,6.50
2022-11-29T12:26:58.380Z,6.95
2022-11-29T12:29:31.748Z,7.45
2022-11-29T12:32:06.330Z,9.57
2022-11-29T12:34:45.796Z,7.47
2022-11-29T12:37:21.026Z,6.22
2022-11-29T12:39:59.494Z,6.53
2022-11-29T12:42:37.927Z,6.60
2022-11-29T12:45:21.373Z,6.65
2022-11-29T12:47:54.578Z,5.65
2022-11-29T12:50:29.391Z,6.05
2022-11-29T12:53:04.187Z,6.50
2022-11-29T12:55:38.617Z,6.25
2022-11-29T12:58:12.608Z,6.97
2022-11-29T13:00:47.836Z,6.40
2022-11-29T13:03:21.123Z,6.85
2022-11-29T13:05:56.186Z,6.03
2022-11-29T13:08:39.420Z,7.05
2022-11-29T13:11:12.027Z,7.63
2022-11-29T13:13:42.812Z,7.07
2022-11-29T13:16:24.008Z,7.00
2022-11-29T13:18:57.017Z,6.78
2022-11-29T13:21:29.909Z,5.95
2022-11-29T13:24:09.639Z,7.20
2022-11-29T13:26:39.643Z,7.25
2022-11-29T13:29:09.277Z,6.63
2022-11-29T13:31:43.286Z,7.63
2022-11-29T13:34:16.131Z,6.70
2022-11-29T13:36:50.752Z,7.25
2022-11-29T13:39:30.273Z,7.15
2022-11-29T13:42:05.883Z,6.53
2022-11-29T13:44:40.212Z,8.10
2022-11-29T13:47:11.975Z,6.70
2022-11-29T13:49:58.131Z,6.25
2022-11-29T13:52:30.078Z,7.03
2022-11-29T13:57:27.889Z,6.55
2022-11-29T13:59:57.181Z,6.40
2022-11-29T14:02:30.640Z,7.20
2022-11-29T14:05:00.341Z,7.05
2022-11-29T14:07:29.575Z,7.65
2022-11-29T14:10:00.375Z,6.47
2022-11-29T14:12:39.264Z,7.28
2022-11-29T14:15:24.446Z,6.20
2022-11-29T14:17:57.115Z,7.10
2022-11-29T14:20:53.546Z,6.78
2022-11-29T14:23:33.641Z,6.63
2022-11-29T14:26:28.111Z,6.85
2022-11-29T14:29:00.909Z,6.72
2022-11-29T14:31:48.797Z,7.00
2022-11-29T14:34:23.176Z,5.97
2022-11-29T14:36:57.030Z,6.18
2022-11-29T14:39:29.832Z,6.13
2022-11-29T14:42:06.360Z,6.50
2022-11-29T14:44:45.769Z,7.25
2022-11-29T14:47:23.978Z,6.68
2022-11-29T14:49:58.337Z,8.35
2022-11-29T14:52:34.329Z,7.05
2022-11-29T14:55:08.635Z,7.07
2022-11-29T14:58:06.052Z,6.22
2022-11-29T15:00:43.083Z,6.15
2022-11-29T15:03:14.284Z,7.03
2022-11-29T15:05:47.580Z,8.25
2022-11-29T15:08:20.866Z,8.25
2022-11-29T15:10:51.806Z,7.43
2022-11-29T15:13:23.897Z,7.22
2022-11-29T15:16:07.394Z,7.70
2022-11-29T15:18:57.994Z,7.43
2022-11-29T15:21:35.380Z,7.85
2022-11-29T15:24:11.722Z,7.25
2022-11-29T15:26:41.077Z,7.40
2022-11-29T15:29:17.796Z,8.15
2022-11-29T15:31:47.877Z,8.07
2022-11-29T15:34:21.143Z,7.68
2022-11-29T15:36:51.686Z,8.05
2022-11-29T15:39:28.328Z,7.78
2022-11-29T15:42:02.157Z,8.10
2022-11-29T15:44:33.010Z,8.05
2022-11-29T15:47:18.396Z,9.23
2022-11-29T15:49:58.955Z,10.88
2022-11-29T15:52:31.802Z,27.95
2022-11-29T15:55:04.390Z,49.78
2022-11-29T15:57:35.296Z,32.10
2022-11-29T16:00:05.903Z,19.92
2022-11-29T16:02:39.471Z,14.57
2022-11-29T16:05:12.985Z,10.05
2022-11-29T16:07:45.275Z,12.93
2022-11-29T16:10:16.373Z,15.60
2022-11-29T16:12:55.520Z,13.30
2022-11-29T16:15:36.617Z,9.85
2022-11-29T16:18:06.659Z,10.70
2022-11-29T16:20:36.224Z,9.55
2022-11-29T16:23:11.966Z,12.73
2022-11-29T16:25:52.809Z,9.95
2022-11-29T16:28:24.182Z,9.82
2022-11-29T16:30:57.894Z,11.80
2022-11-29T16:33:27.181Z,10.38
2022-11-29T16:36:05.697Z,12.13
2022-11-29T16:38:36.857Z,10.77
2022-11-29T16:41:10.439Z,10.18
2022-11-29T16:43:53.725Z,10.95
2022-11-29T16:46:36.545Z,10.90
2022-11-29T16:49:29.439Z,11.32
2022-11-29T16:52:00.813Z,10.63
2022-11-29T16:54:34.007Z,11.02
2022-11-29T16:57:05.535Z,10.70
2022-11-29T16:59:36.472Z,10.13
2022-11-29T17:02:08.121Z,12.48
2022-11-29T17:04:38.192Z,10.85
2022-11-29T17:07:11.656Z,11.93
2022-11-29T17:09:42.729Z,12.32
2022-11-29T17:12:15.502Z,12.57
2022-11-29T17:14:45.445Z,14.25
2022-11-29T17:17:16.122Z,13.15
2022-11-29T17:19:45.298Z,13.27
2022-11-29T17:22:14.605Z,13.40
2022-11-29T17:24:48.233Z,13.82
2022-11-29T17:27:18.133Z,14.23
2022-11-29T17:29:48.540Z,12.27
2022-11-29T17:32:21.988Z,13.48
2022-11-29T17:34:54.489Z,14.60
2022-11-29T17:37:26.249Z,13.48
2022-11-29T17:39:57.000Z,15.02
2022-11-29T17:42:26.233Z,13.77
2022-11-29T17:44:55.588Z,14.02
2022-11-29T17:47:24.740Z,14.55
2022-11-29T17:49:53.937Z,13.38
2022-11-29T17:52:22.873Z,14.15
2022-11-29T17:54:51.943Z,16.50
2022-11-29T17:57:25.278Z,14.60
2022-11-29T17:59:54.449Z,16.15
2022-11-29T18:02:23.928Z,13.75
2022-11-29T18:04:53.211Z,15.10
2022-11-29T18:07:24.900Z,14.80
2022-11-29T18:12:34.428Z,15.20
2022-11-29T18:15:06.525Z,14.15
2022-11-29T18:20:07.780Z,16.10
2022-11-29T18:22:38.310Z,16.77
2022-11-29T18:25:36.957Z,18.05
2022-11-29T18:28:03.065Z,16.55
2022-11-29T18:30:35.670Z,15.55
2022-11-29T18:33:06.628Z,16.48
2022-11-29T18:35:36.083Z,14.98
2022-11-29T18:38:16.285Z,16.40
2022-11-29T18:40:46.526Z,16.00
2022-11-29T18:43:22.735Z,15.88
2022-11-29T18:45:54.514Z,16.17
2022-11-29T18:48:23.825Z,17.00
2022-11-29T18:50:52.778Z,18.17
2022-11-29T18:53:22.126Z,16.42
2022-11-29T18:56:01.068Z,17.48
2022-11-29T18:58:31.640Z,17.80
2022-11-29T19:01:08.106Z,17.25
2022-11-29T19:03:41.105Z,18.23
2022-11-29T19:06:14.192Z,17.20
2022-11-29T19:08:43.989Z,18.13
2022-11-29T19:11:17.682Z,16.10
2022-11-29T19:13:48.968Z,18.90
2022-11-29T19:16:19.374Z,18.92
2022-11-29T19:18:55.400Z,16.83
2022-11-29T19:21:25.915Z,17.33
2022-11-29T19:23:56.355Z,16.15
2022-11-29T19:26:26.641Z,17.55
2022-11-29T19:28:57.832Z,17.05
2022-11-29T19:31:34.971Z,17.30
2022-11-29T19:34:06.411Z,16.33
2022-11-29T19:36:37.444Z,17.60
2022-11-29T19:39:09.357Z,19.27
2022-11-29T19:41:38.791Z,18.13
2022-11-29T19:44:12.378Z,16.80
2022-11-29T19:46:42.474Z,17.17
2022-11-29T19:49:12.095Z,17.05
2022-11-29T19:51:41.102Z,18.52
2022-11-29T19:54:12.055Z,17.85
2022-11-29T19:56:41.652Z,18.13
2022-11-29T19:59:12.060Z,17.85
2022-11-29T20:01:42.918Z,16.88
2022-11-29T20:04:13.879Z,17.35
2022-11-29T20:06:43.076Z,18.38
2022-11-29T20:09:13.450Z,19.95
2022-11-29T20:11:43.909Z,17.73
2022-11-29T20:14:14.674Z,18.08
2022-11-29T20:16:47.038Z,18.73
2022-11-29T20:19:17.995Z,16.30
2022-11-29T20:21:48.808Z,16.58
2022-11-29T20:24:19.404Z,22.15
2022-11-29T20:26:49.834Z,17.52
2022-11-29T20:29:21.808Z,20.95
2022-11-29T20:31:51.564Z,19.15
2022-11-29T20:34:21.440Z,19.65
2022-11-29T20:37:06.777Z,22.27
2022-11-29T20:39:42.235Z,23.65
2022-11-29T20:42:20.868Z,19.52
2022-11-29T20:44:54.251Z,20.85
2022-11-29T20:47:24.552Z,20.23
2022-11-29T20:49:53.671Z,20.80
2022-11-29T20:52:30.402Z,19.27
2022-11-29T20:54:59.377Z,21.65
2022-11-29T20:57:28.765Z,19.42
2022-11-29T20:59:59.501Z,21.88
2022-11-29T21:02:28.531Z,20.83
2022-11-29T21:04:58.701Z,20.50
2022-11-29T21:07:33.545Z,22.45
2022-11-29T21:10:02.734Z,20.88
2022-11-29T21:12:32.193Z,20.58
2022-11-29T21:15:03.177Z,20.95
2022-11-29T21:17:33.857Z,21.43
2022-11-29T21:20:03.645Z,20.80
2022-11-29T21:22:39.063Z,17.02
2022-11-29T21:25:14.600Z,22.35
2022-11-29T21:27:44.328Z,19.52
2022-11-29T21:30:28.555Z,20.52
2022-11-29T21:33:04.677Z,21.50
2022-11-29T21:35:37.698Z,24.45
2022-11-29T21:38:12.481Z,21.08
2022-11-29T21:40:45.699Z,24.77
2022-11-29T21:43:15.024Z,23.58
2022-11-29T21:45:49.001Z,19.50
2022-11-29T21:48:44.029Z,19.70
2022-11-29T21:51:14.068Z,20.27
2022-11-29T21:53:45.552Z,20.88
2022-11-29T21:56:21.813Z,22.65
2022-11-29T21:58:52.742Z,19.13
2022-11-29T22:01:23.468Z,18.40
2022-11-29T22:03:54.186Z,20.80
2022-11-29T22:06:26.198Z,18.67
2022-11-29T22:08:55.642Z,21.45
2022-11-29T22:11:35.442Z,20.23
2022-11-29T22:14:18.499Z,19.00
2022-11-29T22:16:50.578Z,20.17
2022-11-29T22:19:20.371Z,19.75
2022-11-29T22:21:50.768Z,20.23
2022-11-29T22:24:21.120Z,19.98
2022-11-29T22:26:50.655Z,19.92
2022-11-29T22:29:20.678Z,19.13
2022-11-29T22:31:57.255Z,21.13
2022-11-29T22:34:28.354Z,19.60
2022-11-29T22:36:57.993Z,20.50
2022-11-29T22:39:29.183Z,19.92
2022-11-29T22:41:58.860Z,19.90
2022-11-29T22:44:28.137Z,21.55
2022-11-29T22:46:59.043Z,21.08
2022-11-29T22:49:28.397Z,19.33
2022-11-29T22:51:57.612Z,21.40
2022-11-29T22:54:26.840Z,21.85
2022-11-29T22:56:56.588Z,21.23
2022-11-29T22:59:29.195Z,21.92
2022-11-29T23:02:00.398Z,22.25
2022-11-29T23:04:29.714Z,21.63
2022-11-29T23:06:58.955Z,21.52
2022-11-29T23:09:28.222Z,20.88
2022-11-29T23:11:57.592Z,20.38
2022-11-29T23:14:26.639Z,21.13
2022-11-29T23:16:55.886Z,21.05
2022-11-29T23:19:26.303Z,21.05
2022-11-29T23:21:56.470Z,18.92
2022-11-29T23:24:25.383Z,20.40
2022-11-29T23:26:54.410Z,21.45
2022-11-29T23:29:23.348Z,20.90
2022-11-29T23:31:55.736Z,20.73
2022-11-29T23:34:26.584Z,19.10
2022-11-29T23:36:56.031Z,21.77
2022-11-29T23:39:24.965Z,19.25
2022-11-29T23:41:54.017Z,21.15
2022-11-29T23:44:23.060Z,20.98
2022-11-29T23:46:52.085Z,20.05
2022-11-29T23:49:21.130Z,21.95
2022-11-29T23:51:51.708Z,20.65
2022-11-29T23:54:20.730Z,20.33
2022-11-29T23:56:50.045Z,19.95
2022-11-29T23:59:19.364Z,22.00
